Terminal Aerodrome Forecast
Issued by NWS

Home | Current Version | Previous Version | Text Only | Print | Product List | Glossary On
Versions: 1 2 3 4 5 6 7 8 9 10 11 12 13
000
FTUS43 KLSX 211728
TAFUIN
TAF
KUIN 211728Z 2118/2218 18016G25KT P6SM BKN070
     FM220500 19012G20KT P6SM SHRA VCTS OVC050CB
     FM221100 27008KT P6SM SHRA VCTS OVC015CB
     FM221400 31008KT P6SM -SHRA OVC015=

USA.gov is the U.S. government's official web portal to all federal, state and local government web resources and services.